createdAt,value
2022-12-04T00:01:31.704Z,40.05
2022-12-04T00:03:37.891Z,37.50
2022-12-04T00:05:42.877Z,41.40
2022-12-04T00:07:48.340Z,39.78
2022-12-04T00:09:56.435Z,40.80
2022-12-04T00:12:01.578Z,39.75
2022-12-04T00:14:07.703Z,38.65
2022-12-04T00:16:16.586Z,41.03
2022-12-04T00:18:21.595Z,38.45
2022-12-04T00:20:27.285Z,42.88
2022-12-04T00:22:32.737Z,39.40
2022-12-04T00:24:38.169Z,39.72
2022-12-04T00:26:46.101Z,42.90
2022-12-04T00:28:53.042Z,35.88
2022-12-04T00:30:58.466Z,35.70
2022-12-04T00:33:03.457Z,39.03
2022-12-04T00:35:10.336Z,36.03
2022-12-04T00:37:15.861Z,38.78
2022-12-04T00:39:20.855Z,39.28
2022-12-04T00:41:28.350Z,37.78
2022-12-04T00:43:36.069Z,42.65
2022-12-04T00:45:41.935Z,38.33
2022-12-04T00:47:46.995Z,38.33
2022-12-04T00:49:53.816Z,40.15
2022-12-04T00:51:59.492Z,38.53
2022-12-04T00:54:04.944Z,37.50
2022-12-04T00:56:13.812Z,37.47
2022-12-04T00:58:19.204Z,36.05
2022-12-04T01:00:26.772Z,37.70
2022-12-04T01:02:33.864Z,42.03
2022-12-04T01:04:39.219Z,36.03
2022-12-04T01:06:44.391Z,35.47
2022-12-04T01:08:50.056Z,38.67
2022-12-04T01:10:55.180Z,37.95
2022-12-04T01:13:00.568Z,35.33
2022-12-04T01:15:05.731Z,37.05
2022-12-04T01:17:14.592Z,40.33
2022-12-04T01:19:20.002Z,41.83
2022-12-04T01:21:25.254Z,34.90
2022-12-04T01:23:31.051Z,34.97
2022-12-04T01:25:36.075Z,32.95
2022-12-04T01:27:41.423Z,34.80
2022-12-04T01:29:46.530Z,38.28
2022-12-04T01:31:51.553Z,35.88
2022-12-04T01:34:00.029Z,35.25
2022-12-04T01:36:12.320Z,35.63
2022-12-04T01:38:17.322Z,38.33
2022-12-04T01:40:23.091Z,32.30
2022-12-04T01:42:29.248Z,37.58
2022-12-04T01:44:35.976Z,37.70
2022-12-04T01:46:41.562Z,38.00
2022-12-04T01:48:52.448Z,37.65
2022-12-04T01:51:09.762Z,36.40
2022-12-04T01:53:16.570Z,35.25
2022-12-04T01:55:22.486Z,37.00
2022-12-04T01:57:32.405Z,36.10
2022-12-04T01:59:53.150Z,35.47
2022-12-04T02:02:05.191Z,35.47
2022-12-04T02:04:10.275Z,32.53
2022-12-04T02:06:22.111Z,40.80
2022-12-04T02:08:28.396Z,34.03
2022-12-04T02:10:45.566Z,31.00
2022-12-04T02:13:01.810Z,30.58
2022-12-04T02:15:14.955Z,34.00
2022-12-04T02:20:03.639Z,33.60
2022-12-04T02:22:27.842Z,35.00
2022-12-04T02:24:50.606Z,38.47
2022-12-04T02:27:02.191Z,30.67
2022-12-04T02:29:20.122Z,36.45
2022-12-04T02:31:31.077Z,29.17
2022-12-04T02:33:44.801Z,33.97
2022-12-04T02:35:54.196Z,30.85
2022-12-04T02:38:06.599Z,29.48
2022-12-04T02:40:22.495Z,32.88
2022-12-04T02:42:36.624Z,35.65
2022-12-04T02:44:50.126Z,30.13
2022-12-04T02:47:00.954Z,33.05
2022-12-04T02:49:10.839Z,30.40
2022-12-04T02:51:21.479Z,30.52
2022-12-04T02:53:31.080Z,31.80
2022-12-04T02:55:42.794Z,33.10
2022-12-04T02:57:52.977Z,30.00
2022-12-04T03:00:02.587Z,32.30
2022-12-04T03:02:15.526Z,28.13
2022-12-04T03:06:32.442Z,29.60
2022-12-04T03:08:42.452Z,31.90
2022-12-04T03:10:52.162Z,31.60
2022-12-04T03:13:02.899Z,32.55
2022-12-04T03:15:16.691Z,32.60
2022-12-04T03:17:32.802Z,35.28
2022-12-04T03:19:44.440Z,27.27
2022-12-04T03:21:55.216Z,30.15
2022-12-04T03:24:09.903Z,27.85
2022-12-04T03:26:25.452Z,30.35
2022-12-04T03:28:37.720Z,28.85
2022-12-04T03:30:55.447Z,30.45
2022-12-04T03:33:06.684Z,26.92
2022-12-04T03:35:19.357Z,31.27
2022-12-04T03:37:34.571Z,32.63
2022-12-04T03:39:49.954Z,31.88
2022-12-04T03:42:02.233Z,30.00
2022-12-04T03:44:13.253Z,30.83
2022-12-04T03:46:30.215Z,33.65
2022-12-04T03:48:44.220Z,30.38
2022-12-04T03:50:55.131Z,29.67
2022-12-04T03:53:08.722Z,32.28
2022-12-04T03:55:24.567Z,33.30
2022-12-04T03:57:35.060Z,28.52
2022-12-04T03:59:47.269Z,30.85
2022-12-04T04:02:02.449Z,32.33
2022-12-04T04:04:13.160Z,29.50
2022-12-04T04:06:26.840Z,32.33
2022-12-04T04:08:40.544Z,33.53
2022-12-04T04:10:45.985Z,28.77
2022-12-04T04:13:15.938Z,33.00
2022-12-04T04:15:34.539Z,30.63
2022-12-04T04:18:00.791Z,29.67
2022-12-04T04:20:24.503Z,30.35
2022-12-04T04:22:43.068Z,31.77
2022-12-04T04:24:55.317Z,28.83
2022-12-04T04:27:02.100Z,29.02
2022-12-04T04:29:07.159Z,30.85
2022-12-04T04:31:23.236Z,29.27
2022-12-04T04:33:31.701Z,33.42
2022-12-04T04:35:47.555Z,29.30
2022-12-04T04:38:00.453Z,30.90
2022-12-04T04:40:16.800Z,31.40
2022-12-04T04:42:31.106Z,31.33
2022-12-04T04:44:45.124Z,29.75
2022-12-04T04:46:55.377Z,30.45
2022-12-04T04:49:07.820Z,30.58
2022-12-04T04:51:14.243Z,31.52
2022-12-04T04:53:27.259Z,31.02
2022-12-04T04:55:34.464Z,32.35
2022-12-04T04:57:40.610Z,33.05
2022-12-04T04:59:45.959Z,32.95
2022-12-04T05:01:51.321Z,29.80
2022-12-04T05:03:56.379Z,34.28
2022-12-04T05:06:05.166Z,33.00
2022-12-04T05:08:10.246Z,32.13
2022-12-04T05:10:15.300Z,34.25
2022-12-04T05:12:20.385Z,35.72
2022-12-04T05:14:26.039Z,33.70
2022-12-04T05:16:31.582Z,31.48
2022-12-04T05:18:38.014Z,35.53
2022-12-04T05:20:40.835Z,34.50
2022-12-04T05:24:53.559Z,33.10
2022-12-04T05:26:58.587Z,31.38
2022-12-04T05:29:04.118Z,30.40
2022-12-04T05:31:09.556Z,33.72
2022-12-04T05:33:14.559Z,31.77
2022-12-04T05:35:19.877Z,32.70
2022-12-04T05:37:26.224Z,33.00
2022-12-04T05:39:33.812Z,32.88
2022-12-04T05:41:38.818Z,34.03
2022-12-04T05:43:44.194Z,31.10
2022-12-04T05:45:49.415Z,33.60
2022-12-04T05:47:54.418Z,37.08
2022-12-04T05:49:59.508Z,36.25
2022-12-04T05:52:07.446Z,33.40
2022-12-04T05:54:12.431Z,36.08
2022-12-04T05:56:20.998Z,35.05
2022-12-04T05:58:26.023Z,34.97
2022-12-04T06:00:31.693Z,36.60
2022-12-04T06:02:37.846Z,32.90
2022-12-04T06:04:43.028Z,36.65
2022-12-04T06:06:48.038Z,30.75
2022-12-04T06:08:55.861Z,28.15
2022-12-04T06:11:00.881Z,32.55
2022-12-04T06:13:08.562Z,32.45
2022-12-04T06:15:14.151Z,32.28
2022-12-04T06:17:19.391Z,31.42
2022-12-04T06:19:25.698Z,36.20
2022-12-04T06:21:34.353Z,34.88
2022-12-04T06:23:39.707Z,29.30
2022-12-04T06:25:45.046Z,32.10
2022-12-04T06:27:50.985Z,32.88
2022-12-04T06:29:58.959Z,31.98
2022-12-04T06:32:04.866Z,34.25
2022-12-04T06:34:11.310Z,35.45
2022-12-04T06:36:21.138Z,35.67
2022-12-04T06:38:26.160Z,34.63
2022-12-04T06:40:31.626Z,34.58
2022-12-04T06:42:36.987Z,37.40
2022-12-04T06:44:42.082Z,32.55
2022-12-04T06:46:50.199Z,37.78
2022-12-04T06:48:58.537Z,37.42
2022-12-04T06:51:04.480Z,34.67
2022-12-04T06:53:09.911Z,35.15
2022-12-04T06:55:14.888Z,34.47
2022-12-04T06:57:19.865Z,33.75
2022-12-04T06:59:24.913Z,36.60
2022-12-04T07:01:33.556Z,38.47
2022-12-04T07:03:46.311Z,42.83
2022-12-04T07:05:55.948Z,37.92
2022-12-04T07:08:01.045Z,35.95
2022-12-04T07:10:06.886Z,37.08
2022-12-04T07:12:12.211Z,36.75
2022-12-04T07:14:18.454Z,39.05
2022-12-04T07:16:25.818Z,35.22
2022-12-04T07:18:31.281Z,38.38
2022-12-04T07:20:42.001Z,39.28
2022-12-04T07:22:46.982Z,38.95
2022-12-04T07:24:52.408Z,37.75
2022-12-04T07:26:57.395Z,38.55
2022-12-04T07:29:03.418Z,38.08
2022-12-04T07:31:10.840Z,41.13
2022-12-04T07:33:16.593Z,43.67
2022-12-04T07:35:22.298Z,37.33
2022-12-04T07:37:29.935Z,37.85
2022-12-04T07:39:35.329Z,35.80
2022-12-04T07:41:40.471Z,38.78
2022-12-04T07:43:47.145Z,42.42
2022-12-04T07:45:52.253Z,38.08
2022-12-04T07:47:57.288Z,38.55
2022-12-04T07:50:02.252Z,36.15
2022-12-04T07:52:08.776Z,38.13
2022-12-04T07:54:16.388Z,40.08
2022-12-04T07:56:22.526Z,35.28
2022-12-04T07:58:27.548Z,44.20
2022-12-04T08:00:32.793Z,37.67
2022-12-04T08:02:37.774Z,39.50
2022-12-04T08:04:43.109Z,37.78
2022-12-04T08:06:48.543Z,39.50
2022-12-04T08:08:54.756Z,35.53
2022-12-04T08:11:03.620Z,36.72
2022-12-04T08:13:08.648Z,34.58
2022-12-04T08:15:14.151Z,33.58
2022-12-04T08:17:19.509Z,34.85
2022-12-04T08:19:25.864Z,33.42
2022-12-04T08:21:33.469Z,32.53
2022-12-04T08:23:40.198Z,31.38
2022-12-04T08:25:45.188Z,34.03
2022-12-04T08:27:52.723Z,34.42
2022-12-04T08:29:58.001Z,33.15
2022-12-04T08:32:03.244Z,35.67
2022-12-04T08:34:10.807Z,32.40
2022-12-04T08:36:19.300Z,32.05
2022-12-04T08:38:24.365Z,28.77
2022-12-04T08:40:29.901Z,35.17
2022-12-04T08:42:34.939Z,89.15
2022-12-04T08:44:42.567Z,38.03
2022-12-04T08:46:47.720Z,49.78
2022-12-04T08:48:52.770Z,28.17
2022-12-04T08:50:58.701Z,40.42
2022-12-04T08:53:03.755Z,30.35
2022-12-04T08:55:10.750Z,32.42
2022-12-04T08:57:15.820Z,31.40
2022-12-04T08:59:20.842Z,34.47
2022-12-04T09:01:30.341Z,47.47
2022-12-04T09:03:37.282Z,44.13
2022-12-04T09:05:42.493Z,45.97
2022-12-04T09:07:47.549Z,54.00
2022-12-04T09:09:52.607Z,33.30
2022-12-04T09:11:58.107Z,33.45
2022-12-04T09:14:06.035Z,31.50
2022-12-04T09:16:18.383Z,32.78
2022-12-04T09:18:26.476Z,27.58
2022-12-04T09:20:31.872Z,30.00
2022-12-04T09:23:02.260Z,30.13
2022-12-04T09:25:05.522Z,28.90
2022-12-04T09:27:14.635Z,31.42
2022-12-04T09:29:20.441Z,28.80
2022-12-04T09:31:27.262Z,29.27
2022-12-04T09:33:35.801Z,28.15
2022-12-04T09:35:42.096Z,28.48
2022-12-04T09:37:47.242Z,27.10
2022-12-04T09:39:52.292Z,25.92
2022-12-04T09:42:21.352Z,27.65
2022-12-04T09:44:30.880Z,30.52
2022-12-04T09:46:40.160Z,25.05
2022-12-04T09:48:49.894Z,29.02
2022-12-04T09:50:56.166Z,24.63
2022-12-04T09:53:06.653Z,28.08
2022-12-04T09:55:20.877Z,26.30
2022-12-04T09:57:35.597Z,28.55
2022-12-04T09:59:41.327Z,22.58
2022-12-04T10:01:51.255Z,26.02
2022-12-04T10:04:05.687Z,24.83
2022-12-04T10:06:20.369Z,26.10
2022-12-04T10:08:29.525Z,25.80
2022-12-04T10:10:42.536Z,23.88
2022-12-04T10:12:57.393Z,24.60
2022-12-04T10:15:21.832Z,26.25
2022-12-04T10:18:00.455Z,26.80
2022-12-04T10:20:30.368Z,28.98
2022-12-04T10:22:50.751Z,26.02
2022-12-04T10:24:59.144Z,26.33
2022-12-04T10:27:12.883Z,26.15
2022-12-04T10:29:25.290Z,27.38
2022-12-04T10:31:32.730Z,24.58
2022-12-04T10:33:44.063Z,24.50
2022-12-04T10:35:56.598Z,25.15
2022-12-04T10:38:07.087Z,23.25
2022-12-04T10:40:21.391Z,25.80
2022-12-04T10:42:34.150Z,23.25
2022-12-04T10:44:39.160Z,25.65
2022-12-04T10:46:46.490Z,24.92
2022-12-04T10:48:57.067Z,22.48
2022-12-04T10:51:04.730Z,25.30
2022-12-04T10:53:13.742Z,24.95
2022-12-04T10:55:30.123Z,26.48
2022-12-04T10:57:40.768Z,27.85
2022-12-04T10:59:53.592Z,22.85
2022-12-04T11:02:07.471Z,25.05
2022-12-04T11:04:25.132Z,28.90
2022-12-04T11:06:33.393Z,26.55
2022-12-04T11:08:45.141Z,27.63
2022-12-04T11:11:02.361Z,27.23
2022-12-04T11:13:17.058Z,40.38
2022-12-04T11:15:22.311Z,27.45
2022-12-04T11:17:27.439Z,28.40
2022-12-04T11:19:36.247Z,26.00
2022-12-04T11:21:44.254Z,24.15
2022-12-04T11:23:53.634Z,27.63
2022-12-04T11:26:05.792Z,22.50
2022-12-04T11:28:40.767Z,22.42
2022-12-04T11:30:52.875Z,23.63
2022-12-04T11:32:58.727Z,22.80
2022-12-04T11:35:14.167Z,25.17
2022-12-04T11:37:27.877Z,23.75
2022-12-04T11:39:37.782Z,22.38
2022-12-04T11:41:43.022Z,23.63
2022-12-04T11:43:58.070Z,21.50
2022-12-04T11:46:07.559Z,23.77
2022-12-04T11:48:19.382Z,23.10
2022-12-04T11:50:38.482Z,24.15
2022-12-04T11:53:09.419Z,22.63
2022-12-04T11:55:29.063Z,23.77
2022-12-04T11:57:43.742Z,24.17
2022-12-04T12:00:12.090Z,25.25
2022-12-04T12:02:59.195Z,24.00
2022-12-04T12:05:22.844Z,26.45
2022-12-04T12:09:52.153Z,26.88
2022-12-04T12:12:05.254Z,24.58
2022-12-04T12:16:30.768Z,21.92
2022-12-04T12:19:13.212Z,23.60
2022-12-04T12:21:25.574Z,22.50
2022-12-04T12:23:54.139Z,25.25
2022-12-04T12:26:11.538Z,24.73
2022-12-04T12:28:30.832Z,29.40
2022-12-04T12:30:50.401Z,26.92
2022-12-04T12:33:09.854Z,30.90
2022-12-04T12:35:25.256Z,27.92
2022-12-04T12:37:40.603Z,27.67
2022-12-04T12:39:54.166Z,29.92
2022-12-04T12:42:04.810Z,28.25
2022-12-04T12:44:18.908Z,27.67
2022-12-04T12:46:30.870Z,27.17
2022-12-04T12:48:46.625Z,28.13
2022-12-04T12:51:15.031Z,27.17
2022-12-04T12:53:28.111Z,28.00
2022-12-04T12:55:39.610Z,26.90
2022-12-04T12:57:52.488Z,27.25
2022-12-04T13:00:03.654Z,28.13
2022-12-04T13:02:20.710Z,27.17
2022-12-04T13:04:33.268Z,28.90
2022-12-04T13:06:43.447Z,26.50
2022-12-04T13:09:02.034Z,26.38
2022-12-04T13:11:14.075Z,28.60
2022-12-04T13:13:28.172Z,31.67
2022-12-04T13:15:40.941Z,27.58
2022-12-04T13:17:47.897Z,29.08
2022-12-04T13:19:58.125Z,26.77
2022-12-04T13:22:17.171Z,29.85
2022-12-04T13:24:44.458Z,30.02
2022-12-04T13:26:57.134Z,28.35
2022-12-04T13:29:15.791Z,28.52
2022-12-04T13:31:33.164Z,29.27
2022-12-04T13:34:17.652Z,30.67
2022-12-04T13:36:51.413Z,28.90
2022-12-04T13:41:22.977Z,28.23
2022-12-04T13:43:34.720Z,31.23
2022-12-04T13:45:43.143Z,31.90
2022-12-04T13:48:00.287Z,29.30
2022-12-04T13:50:30.455Z,32.17
2022-12-04T13:52:42.231Z,32.90
2022-12-04T13:55:00.912Z,33.05
2022-12-04T13:57:25.032Z,28.50
2022-12-04T13:59:42.241Z,32.38
2022-12-04T14:01:54.672Z,33.97
2022-12-04T14:04:00.693Z,29.70
2022-12-04T14:06:23.208Z,34.53
2022-12-04T14:08:31.436Z,35.23
2022-12-04T14:10:39.902Z,33.33
2022-12-04T14:12:54.737Z,32.75
2022-12-04T14:15:02.366Z,36.00
2022-12-04T14:17:21.908Z,33.50
2022-12-04T14:19:34.929Z,36.20
2022-12-04T14:21:43.881Z,31.90
2022-12-04T14:23:49.899Z,34.30
2022-12-04T14:25:57.921Z,34.00
2022-12-04T14:28:14.274Z,32.40
2022-12-04T14:30:25.352Z,34.53
2022-12-04T14:32:38.020Z,37.03
2022-12-04T14:34:43.619Z,36.90
2022-12-04T14:36:51.206Z,37.28
2022-12-04T14:39:07.716Z,35.45
2022-12-04T14:41:13.282Z,36.97
2022-12-04T14:43:23.050Z,41.75
2022-12-04T14:45:42.088Z,36.72
2022-12-04T14:48:01.446Z,38.47
2022-12-04T14:50:27.240Z,36.03
2022-12-04T14:52:39.739Z,33.42
2022-12-04T14:54:55.960Z,37.63
2022-12-04T14:57:19.299Z,34.83
2022-12-04T14:59:31.124Z,35.60
2022-12-04T15:01:40.717Z,38.50
2022-12-04T15:03:51.778Z,36.80
2022-12-04T15:06:06.819Z,40.47
2022-12-04T15:08:11.894Z,39.55
2022-12-04T15:10:37.575Z,38.75
2022-12-04T15:12:49.305Z,47.15
2022-12-04T15:14:54.604Z,40.03
2022-12-04T15:17:06.037Z,41.63
2022-12-04T15:19:22.153Z,44.05
2022-12-04T15:21:33.238Z,40.30
2022-12-04T15:23:41.494Z,46.08
2022-12-04T15:25:49.416Z,44.33
2022-12-04T15:27:59.337Z,42.10
2022-12-04T15:30:06.552Z,43.85
2022-12-04T15:32:15.244Z,44.97
2022-12-04T15:34:27.798Z,42.00
2022-12-04T15:36:47.498Z,51.00
2022-12-04T15:38:55.506Z,42.15
2022-12-04T15:41:03.349Z,45.55
2022-12-04T15:43:19.374Z,45.05
2022-12-04T15:45:36.086Z,43.42
2022-12-04T15:47:54.568Z,46.05
2022-12-04T15:50:13.222Z,43.83
2022-12-04T15:52:20.814Z,41.95
2022-12-04T15:54:28.766Z,41.70
2022-12-04T15:56:33.802Z,41.78
2022-12-04T15:58:42.060Z,45.63
2022-12-04T16:00:47.427Z,48.03
2022-12-04T16:02:53.448Z,48.90
2022-12-04T16:05:02.002Z,50.72
2022-12-04T16:07:07.179Z,49.72
2022-12-04T16:09:24.902Z,48.00
2022-12-04T16:11:37.294Z,47.00
2022-12-04T16:13:42.492Z,50.92
2022-12-04T16:15:48.144Z,49.03
2022-12-04T16:17:54.287Z,49.92
2022-12-04T16:20:02.390Z,48.15
2022-12-04T16:22:17.349Z,45.90
2022-12-04T16:24:25.930Z,48.67
2022-12-04T16:26:31.147Z,47.65
2022-12-04T16:28:36.131Z,50.22
2022-12-04T16:30:41.207Z,47.22
2022-12-04T16:32:46.164Z,46.60
2022-12-04T16:34:52.207Z,48.00
2022-12-04T16:36:59.876Z,43.42
2022-12-04T16:39:04.816Z,48.03
2022-12-04T16:41:16.090Z,48.05
2022-12-04T16:43:21.256Z,47.03
2022-12-04T16:45:31.280Z,48.10
2022-12-04T16:47:36.250Z,49.00
2022-12-04T16:49:42.872Z,41.00
2022-12-04T16:51:52.566Z,50.45
2022-12-04T16:54:00.161Z,47.75
2022-12-04T16:56:05.634Z,44.95
2022-12-04T16:58:10.807Z,50.50
2022-12-04T17:00:18.504Z,45.88
2022-12-04T17:02:29.702Z,43.58
2022-12-04T17:04:34.801Z,41.28
2022-12-04T17:06:40.984Z,46.97
2022-12-04T17:08:46.244Z,46.17
2022-12-04T17:10:55.610Z,49.17
2022-12-04T17:13:00.599Z,45.53
2022-12-04T17:15:05.645Z,46.63
2022-12-04T17:17:10.591Z,47.55
2022-12-04T17:19:16.217Z,43.80
2022-12-04T17:21:21.980Z,47.35
2022-12-04T17:23:27.252Z,49.28
2022-12-04T17:25:32.609Z,47.15
2022-12-04T17:27:40.552Z,48.58
2022-12-04T17:29:45.490Z,50.70
2022-12-04T17:31:51.111Z,46.88
2022-12-04T17:33:56.619Z,48.55
2022-12-04T17:36:03.475Z,48.22
2022-12-04T17:38:09.191Z,48.65
2022-12-04T17:40:16.176Z,45.75
2022-12-04T17:42:21.310Z,49.15
2022-12-04T17:44:29.342Z,51.83
2022-12-04T17:46:34.741Z,54.42
2022-12-04T17:48:39.969Z,47.75
2022-12-04T17:50:44.902Z,47.80
2022-12-04T17:52:49.911Z,51.33
2022-12-04T17:54:55.623Z,51.70
2022-12-04T17:57:00.805Z,49.47
2022-12-04T17:59:07.220Z,50.75
2022-12-04T18:01:18.354Z,45.45
2022-12-04T18:03:23.439Z,51.97
2022-12-04T18:05:28.495Z,52.58
2022-12-04T18:07:34.209Z,49.55
2022-12-04T18:09:39.840Z,46.70
2022-12-04T18:11:49.210Z,49.58
2022-12-04T18:13:58.846Z,51.15
2022-12-04T18:16:07.282Z,49.63
2022-12-04T18:18:14.838Z,49.30
2022-12-04T18:20:19.916Z,50.53
2022-12-04T18:22:24.878Z,48.38
2022-12-04T18:24:30.521Z,49.30
2022-12-04T18:26:39.036Z,50.95
2022-12-04T18:28:45.739Z,50.80
2022-12-04T18:30:50.768Z,47.08
2022-12-04T18:32:59.071Z,59.83
2022-12-04T18:35:07.101Z,47.92
2022-12-04T18:37:12.125Z,49.53
2022-12-04T18:39:20.472Z,53.55
2022-12-04T18:41:26.592Z,54.90
2022-12-04T18:43:31.836Z,48.22
2022-12-04T18:45:36.861Z,49.53
2022-12-04T18:47:41.902Z,48.67
2022-12-04T18:49:47.129Z,51.50
2022-12-04T18:51:54.658Z,50.88
2022-12-04T18:54:02.867Z,45.58
2022-12-04T18:56:08.498Z,48.75
2022-12-04T18:58:13.475Z,51.33
2022-12-04T19:00:19.705Z,52.53
2022-12-04T19:02:25.531Z,52.78
2022-12-04T19:04:31.116Z,51.75
2022-12-04T19:06:40.290Z,56.22
2022-12-04T19:08:48.280Z,57.25
2022-12-04T19:10:53.581Z,51.22
2022-12-04T19:12:58.724Z,57.15
2022-12-04T19:15:04.409Z,58.67
2022-12-04T19:17:10.387Z,54.80
2022-12-04T19:19:17.785Z,57.83
2022-12-04T19:21:22.946Z,60.22
2022-12-04T19:23:28.999Z,65.65
2022-12-04T19:25:36.844Z,55.28
2022-12-04T19:27:41.808Z,54.92
2022-12-04T19:29:47.140Z,58.95
2022-12-04T19:31:57.635Z,60.00
2022-12-04T19:34:05.213Z,53.80
2022-12-04T19:36:11.528Z,55.25
2022-12-04T19:38:16.666Z,57.88
2022-12-04T19:40:24.222Z,59.65
2022-12-04T19:42:33.679Z,58.80
2022-12-04T19:44:48.912Z,65.05
2022-12-04T19:46:54.839Z,60.72
2022-12-04T19:49:03.799Z,59.88
2022-12-04T19:51:11.580Z,67.30
2022-12-04T19:53:16.748Z,65.35
2022-12-04T19:55:21.721Z,58.45
2022-12-04T19:57:26.708Z,59.78
2022-12-04T19:59:38.617Z,59.08
2022-12-04T20:01:45.757Z,57.53
2022-12-04T20:03:51.205Z,57.15
2022-12-04T20:05:56.827Z,59.03
2022-12-04T20:10:06.396Z,56.92
2022-12-04T20:12:11.770Z,54.53
2022-12-04T20:14:17.175Z,54.53
2022-12-04T20:16:27.611Z,58.38
2022-12-04T20:18:33.339Z,53.50
2022-12-04T20:20:38.812Z,56.42
2022-12-04T20:22:43.747Z,60.08
2022-12-04T20:24:49.138Z,58.25
2022-12-04T20:26:54.752Z,60.08
2022-12-04T20:29:02.214Z,54.72
2022-12-04T20:31:16.730Z,59.08
2022-12-04T20:33:24.383Z,56.72
2022-12-04T20:35:29.590Z,56.40
2022-12-04T20:37:35.865Z,48.28
2022-12-04T20:39:40.875Z,59.30
2022-12-04T20:41:46.393Z,58.15
2022-12-04T20:43:51.869Z,55.05
2022-12-04T20:45:56.844Z,59.22
2022-12-04T20:48:02.129Z,55.10
2022-12-04T20:50:11.750Z,54.53
2022-12-04T20:52:16.686Z,57.03
2022-12-04T20:54:24.662Z,60.72
2022-12-04T20:56:33.680Z,53.92
2022-12-04T20:58:39.076Z,54.28
2022-12-04T21:00:44.735Z,53.65
2022-12-04T21:02:50.628Z,63.45
2022-12-04T21:04:55.647Z,57.45
2022-12-04T21:07:03.293Z,50.33
2022-12-04T21:09:10.687Z,52.63
2022-12-04T21:11:15.796Z,57.22
2022-12-04T21:13:33.556Z,52.30
2022-12-04T21:15:51.445Z,51.75
2022-12-04T21:17:57.203Z,56.92
2022-12-04T21:20:07.368Z,55.40
2022-12-04T21:22:16.736Z,52.90
2022-12-04T21:24:26.570Z,55.83
2022-12-04T21:26:31.873Z,60.33
2022-12-04T21:28:36.884Z,52.25
2022-12-04T21:30:42.206Z,57.00
2022-12-04T21:32:47.567Z,55.13
2022-12-04T21:34:52.834Z,48.97
2022-12-04T21:36:57.772Z,56.97
2022-12-04T21:39:06.621Z,53.35
2022-12-04T21:41:32.819Z,54.08
2022-12-04T21:43:39.686Z,51.10
2022-12-04T21:45:45.928Z,55.05
2022-12-04T21:47:51.247Z,61.40
2022-12-04T21:49:56.949Z,52.72
2022-12-04T21:52:02.622Z,59.20
2022-12-04T21:54:10.484Z,54.40
2022-12-04T21:56:15.464Z,53.10
2022-12-04T21:58:20.848Z,49.33
2022-12-04T22:00:25.940Z,53.70
2022-12-04T22:02:31.809Z,52.58
2022-12-04T22:04:37.288Z,53.13
2022-12-04T22:06:42.355Z,53.22
2022-12-04T22:08:47.351Z,47.25
2022-12-04T22:10:54.918Z,51.75
2022-12-04T22:12:59.880Z,45.92
2022-12-04T22:15:04.828Z,47.55
2022-12-04T22:17:09.804Z,50.88
2022-12-04T22:19:15.903Z,45.75
2022-12-04T22:21:21.630Z,47.28
2022-12-04T22:23:26.570Z,48.67
2022-12-04T22:25:32.251Z,48.15
2022-12-04T22:27:39.786Z,55.38
2022-12-04T22:30:02.133Z,48.42
2022-12-04T22:32:07.579Z,48.13
2022-12-04T22:34:16.254Z,50.72
2022-12-04T22:36:24.345Z,47.13
2022-12-04T22:38:29.304Z,49.30
2022-12-04T22:40:34.236Z,52.40
2022-12-04T22:42:41.732Z,48.58
2022-12-04T22:44:46.678Z,47.95
2022-12-04T22:46:51.722Z,43.38
2022-12-04T22:48:56.774Z,43.58
2022-12-04T22:51:04.599Z,42.83
2022-12-04T22:53:09.538Z,49.40
2022-12-04T22:55:14.487Z,45.80
2022-12-04T22:57:19.939Z,48.55
2022-12-04T22:59:27.475Z,44.10
2022-12-04T23:01:34.976Z,50.88
2022-12-04T23:03:40.899Z,48.78
2022-12-04T23:05:45.849Z,53.67
2022-12-04T23:07:53.518Z,48.53
2022-12-04T23:09:59.134Z,43.88
2022-12-04T23:12:04.504Z,48.28
2022-12-04T23:14:11.879Z,44.13
2022-12-04T23:16:20.512Z,46.42
2022-12-04T23:18:26.075Z,47.88
2022-12-04T23:20:30.997Z,45.53
2022-12-04T23:22:35.943Z,46.80
2022-12-04T23:24:41.484Z,51.13
2022-12-04T23:26:48.796Z,44.45
2022-12-04T23:28:54.275Z,48.05
2022-12-04T23:31:01.021Z,53.75
2022-12-04T23:33:08.643Z,52.00
2022-12-04T23:35:13.662Z,48.72
2022-12-04T23:37:18.825Z,47.92
2022-12-04T23:39:23.771Z,49.58
2022-12-04T23:41:31.591Z,48.67
2022-12-04T23:43:37.816Z,49.25
2022-12-04T23:45:42.986Z,47.28
2022-12-04T23:47:48.149Z,45.20
2022-12-04T23:49:56.071Z,45.63
2022-12-04T23:52:01.828Z,48.78
2022-12-04T23:54:07.629Z,45.13
2022-12-04T23:56:16.808Z,47.97
2022-12-04T23:58:21.770Z,45.13
